Time;durP1;ratioP1;P1;durP2;ratioP2;P2;SDS_P1;SDS_P2;PMS_P1;PMS_P2;Temp;Humidity;BMP_temperature;BMP_pressure;BME280_temperature;BME280_humidity;BME280_pressure;Samples;Min_cycle;Max_cycle;Signal;HPM_P1;HPM_P2
2022/12/08 00:02:16;;;;;;;13.52;6.90;;;;;;;2.52;100.00;101064.50;5075887;28;20381;-83
2022/12/08 00:10:09;;;;;;;9.35;5.63;;;;;;;2.52;100.00;101064.50;5075829;28;20047;-82
2022/12/08 00:12:34;;;;;;;13.25;6.95;;;;;;;2.50;100.00;101057.63;5076837;28;20469;-82
2022/12/08 00:14:59;;;;;;;11.57;5.97;;;;;;;2.50;100.00;101057.63;5076180;28;20042;-82
2022/12/08 00:17:25;;;;;;;11.35;6.10;;;;;;;2.50;100.00;101057.63;5076468;28;20026;-83
2022/12/08 00:19:50;;;;;;;12.60;6.30;;;;;;;2.49;100.00;101051.63;5076208;28;20033;-82
2022/12/08 00:22:15;;;;;;;13.85;6.78;;;;;;;2.47;100.00;101045.63;5075223;28;20027;-82
2022/12/08 00:24:43;;;;;;;14.35;7.10;;;;;;;2.49;100.00;101048.22;5076116;28;20123;-83
2022/12/08 00:27:11;;;;;;;12.27;6.30;;;;;;;2.50;100.00;101042.25;5076252;28;20035;-82
2022/12/08 00:29:36;;;;;;;12.52;6.43;;;;;;;2.50;100.00;101035.41;5075714;28;20028;-82
2022/12/08 00:32:02;;;;;;;11.02;5.93;;;;;;;2.52;100.00;101038.03;5076219;28;20040;-83
2022/12/08 00:34:27;;;;;;;10.63;5.43;;;;;;;2.53;100.00;101032.94;5076118;28;20083;-83
2022/12/08 00:36:53;;;;;;;13.50;6.65;;;;;;;2.54;100.00;101028.66;5075277;28;20357;-82
2022/12/08 00:39:18;;;;;;;12.90;6.93;;;;;;;2.55;100.00;101028.72;5075644;28;20119;-82
2022/12/08 00:44:27;;;;;;;11.95;6.30;;;;;;;2.58;100.00;101031.34;5075690;28;20106;-82
2022/12/08 00:46:53;;;;;;;13.75;6.50;;;;;;;2.59;100.00;101027.06;5076034;28;20114;-83
2022/12/08 00:49:18;;;;;;;12.60;6.35;;;;;;;2.59;100.00;101014.25;5075779;28;20104;-83
2022/12/08 00:51:44;;;;;;;11.85;6.30;;;;;;;2.61;100.00;101018.56;5075496;28;20098;-82
2022/12/08 00:54:10;;;;;;;12.30;6.47;;;;;;;2.59;100.00;101012.53;5075283;28;20468;-82
2022/12/08 00:56:38;;;;;;;11.93;5.82;;;;;;;2.58;100.00;101013.41;5076102;28;20381;-83
2022/12/08 00:59:09;;;;;;;14.00;6.95;;;;;;;2.58;100.00;101008.28;5074890;28;20025;-82
2022/12/08 01:01:42;;;;;;;11.50;6.28;;;;;;;2.59;100.00;101007.41;5075583;28;20017;-82
2022/12/08 01:04:10;;;;;;;15.48;7.40;;;;;;;2.59;100.00;101014.25;5074480;28;20016;-82
2022/12/08 01:06:36;;;;;;;14.43;6.88;;;;;;;2.58;100.00;101007.41;5075511;28;20032;-82
2022/12/08 01:09:04;;;;;;;11.30;6.18;;;;;;;2.57;100.00;101003.97;5075684;28;20072;-82
2022/12/08 01:11:48;;;;;;;11.52;6.28;;;;;;;2.60;100.00;101004.03;5074405;28;20021;-82
2022/12/08 01:14:19;;;;;;;13.82;6.68;;;;;;;2.60;100.00;101003.19;5075101;28;20025;-82
2022/12/08 01:16:45;;;;;;;10.32;5.22;;;;;;;2.58;100.00;100998.03;5075495;28;20384;-83
2022/12/08 01:19:12;;;;;;;14.77;7.53;;;;;;;2.60;100.00;100991.22;5074553;28;20020;-82
2022/12/08 01:21:39;;;;;;;14.32;7.47;;;;;;;2.61;100.00;101000.63;5075649;28;20106;-82
2022/12/08 01:24:05;;;;;;;14.95;7.72;;;;;;;2.61;100.00;100992.94;5074991;28;20495;-82
2022/12/08 01:26:30;;;;;;;13.57;7.00;;;;;;;2.60;100.00;100998.06;5073655;28;20049;-82
2022/12/08 01:28:56;;;;;;;13.43;7.00;;;;;;;2.61;100.00;100998.06;5075021;28;20020;-82
2022/12/08 01:31:21;;;;;;;12.80;6.68;;;;;;;2.61;100.00;100998.06;5075078;28;20293;-83
2022/12/08 01:33:48;;;;;;;12.57;6.50;;;;;;;2.61;100.00;100995.50;5074168;28;20025;-82
2022/12/08 01:36:22;;;;;;;11.85;6.32;;;;;;;2.62;100.00;100996.38;5075025;28;20044;-82
2022/12/08 01:38:48;;;;;;;12.82;6.20;;;;;;;2.61;100.00;100998.06;5074947;28;20025;-82
2022/12/08 01:41:19;;;;;;;12.82;6.55;;;;;;;2.62;100.00;100998.94;5074258;28;20048;-82
2022/12/08 01:44:12;;;;;;;12.25;6.30;;;;;;;2.61;100.00;100990.38;5074868;28;20047;-82
2022/12/08 01:46:42;;;;;;;11.45;6.10;;;;;;;2.62;100.00;100991.25;5081958;28;20136;-82
2022/12/08 01:49:32;;;;;;;11.25;5.75;;;;;;;2.62;100.00;100978.44;5094809;28;20111;-83
2022/12/08 01:52:16;;;;;;;10.85;5.70;;;;;;;2.67;100.00;100983.66;5094621;28;20544;-83
2022/12/08 01:54:54;;;;;;;12.50;6.05;;;;;;;2.63;100.00;100985.31;5094150;28;20410;-83
2022/12/08 01:57:26;;;;;;;12.57;6.28;;;;;;;2.63;100.00;100975.91;5088398;28;20040;-82
2022/12/08 01:59:59;;;;;;;12.38;6.22;;;;;;;2.67;100.00;100981.09;5094765;28;20016;-83
2022/12/08 02:02:30;;;;;;;12.85;5.97;;;;;;;2.66;100.00;100972.53;5093409;28;20028;-82
2022/12/08 02:04:56;;;;;;;10.82;5.80;;;;;;;2.68;100.00;100970.88;5094720;28;20051;-83
2022/12/08 02:07:22;;;;;;;11.82;6.25;;;;;;;2.66;100.00;100969.97;5088821;28;20077;-82
2022/12/08 02:09:47;;;;;;;11.97;5.87;;;;;;;2.66;100.00;100964.84;5073711;28;20032;-82
2022/12/08 02:12:13;;;;;;;11.35;5.40;;;;;;;2.65;100.00;100965.66;5073962;28;20287;-83
2022/12/08 02:14:38;;;;;;;11.32;5.75;;;;;;;2.65;100.00;100963.09;5073526;28;20032;-82
2022/12/08 02:17:26;;;;;;;11.15;5.70;;;;;;;2.66;100.00;100962.28;5073877;28;20354;-82
2022/12/08 02:20:24;;;;;;;10.40;5.22;;;;;;;2.65;100.00;100955.41;5073906;28;20090;-83
2022/12/08 02:23:12;;;;;;;9.80;4.68;;;;;;;2.66;100.00;100962.28;5072841;28;20056;-83
2022/12/08 02:26:01;;;;;;;9.55;4.80;;;;;;;2.66;100.00;100958.88;5073893;28;20137;-83
2022/12/08 02:29:11;;;;;;;8.32;4.28;;;;;;;2.63;100.00;100950.28;5092485;28;20476;-82
2022/12/08 02:31:55;;;;;;;9.93;4.90;;;;;;;2.62;100.00;100935.72;5052796;28;20036;-82
2022/12/08 02:34:44;;;;;;;9.38;4.93;;;;;;;2.63;100.00;100931.50;5094073;28;20032;-83
2022/12/08 02:37:24;;;;;;;9.52;4.65;;;;;;;2.61;100.00;100928.88;5080486;28;20537;-82
2022/12/08 02:40:06;;;;;;;8.20;4.47;;;;;;;2.63;100.00;100921.25;5093990;28;20028;-82
2022/12/08 02:42:49;;;;;;;9.60;4.60;;;;;;;2.61;100.00;100920.34;5093902;28;20039;-82
2022/12/08 02:45:40;;;;;;;9.73;5.05;;;;;;;2.62;100.00;100912.69;5093345;28;20376;-83
2022/12/08 02:48:07;;;;;;;7.43;4.25;;;;;;;2.62;100.00;100917.81;5093262;28;20050;-82
2022/12/08 02:50:32;;;;;;;9.70;4.90;;;;;;;2.61;100.00;100910.09;5093382;28;20056;-82
2022/12/08 02:52:57;;;;;;;8.02;4.40;;;;;;;2.61;100.00;100904.97;5093953;28;20425;-82
2022/12/08 02:55:52;;;;;;;7.03;3.72;;;;;;;2.60;100.00;100904.09;5093092;28;20494;-83
2022/12/08 02:58:30;;;;;;;7.90;4.50;;;;;;;2.60;100.00;100898.13;5062945;28;20040;-82
2022/12/08 03:01:30;;;;;;;8.20;4.03;;;;;;;2.60;100.00;100898.13;5093954;28;20028;-83
2022/12/08 03:04:08;;;;;;;9.73;4.85;;;;;;;2.62;100.00;100896.44;5093150;28;20028;-82
2022/12/08 03:06:57;;;;;;;8.63;4.30;;;;;;;2.60;100.00;100888.72;5093642;28;20035;-82
2022/12/08 03:09:47;;;;;;;8.60;4.55;;;;;;;2.60;100.00;100888.72;5092719;28;20105;-82
2022/12/08 03:12:19;;;;;;;10.70;5.35;;;;;;;2.60;100.00;100887.88;5092634;28;20042;-82
2022/12/08 03:14:51;;;;;;;10.35;5.07;;;;;;;2.58;100.00;100887.84;5093609;28;20039;-82
2022/12/08 03:17:20;;;;;;;11.13;5.35;;;;;;;2.59;100.00;100904.91;5079637;28;20038;-82
2022/12/08 03:19:47;;;;;;;11.13;5.03;;;;;;;2.59;100.00;100907.47;5072510;28;20396;-83
2022/12/08 03:22:14;;;;;;;;;;;;;;;2.59;100.00;100889.53;5072808;28;20025;-82
2022/12/08 03:24:44;;;;;;;8.30;4.63;;;;;;;2.60;100.00;100890.44;5072921;28;20284;-83
2022/12/08 03:27:20;;;;;;;9.65;4.90;;;;;;;2.60;100.00;100891.28;5072136;28;20024;-83
2022/12/08 03:29:47;;;;;;;10.25;4.80;;;;;;;2.61;100.00;100893.00;5072978;28;20380;-83
2022/12/08 03:32:34;;;;;;;9.10;4.60;;;;;;;2.63;100.00;100890.50;5072188;28;20021;-82
2022/12/08 03:35:01;;;;;;;;;;;;;;;2.62;100.00;100879.38;5072549;28;20025;-83
2022/12/08 03:37:27;;;;;;;8.55;4.55;;;;;;;2.63;100.00;100885.38;5072631;28;19920;-82
2022/12/08 03:39:53;;;;;;;7.65;3.90;;;;;;;2.63;100.00;100870.84;5072268;28;20419;-83
2022/12/08 03:42:18;;;;;;;7.38;4.05;;;;;;;2.63;100.00;100865.72;5072467;28;20500;-82
2022/12/08 03:44:43;;;;;;;6.97;3.90;;;;;;;2.65;100.00;100864.88;5072603;28;20053;-83
2022/12/08 03:47:08;;;;;;;7.40;4.05;;;;;;;2.65;100.00;100863.16;5083826;28;20070;-83
2022/12/08 03:49:34;;;;;;;6.63;3.72;;;;;;;2.67;100.00;100860.66;5093151;28;20061;-82
2022/12/08 03:51:59;;;;;;;7.75;4.30;;;;;;;2.66;100.00;100858.91;5093188;28;20030;-83
2022/12/08 03:54:24;;;;;;;9.23;4.95;;;;;;;2.66;100.00;100862.34;5091738;28;20165;-82
2022/12/08 03:56:50;;;;;;;12.85;6.00;;;;;;;2.67;100.00;100864.06;5092742;28;20032;-83
2022/12/08 03:59:15;;;;;;;11.85;5.70;;;;;;;2.66;100.00;100859.78;5092517;28;20473;-82
2022/12/08 04:01:40;;;;;;;14.43;6.88;;;;;;;2.66;100.00;100851.22;5092334;28;20516;-82
2022/12/08 04:04:06;;;;;;;13.15;6.32;;;;;;;2.68;100.00;100852.13;5092448;28;20020;-83
2022/12/08 04:06:31;;;;;;;12.95;6.18;;;;;;;2.68;100.00;100844.44;5092837;28;20028;-83
2022/12/08 04:08:56;;;;;;;14.40;6.72;;;;;;;2.70;100.00;100841.06;5092036;28;20035;-83
2022/12/08 04:11:22;;;;;;;19.33;8.90;;;;;;;2.70;100.00;100837.66;5092608;28;20032;-83
2022/12/08 04:13:47;;;;;;;18.63;8.73;;;;;;;2.69;100.00;100844.47;5092522;28;20448;-82
2022/12/08 04:16:31;;;;;;;17.67;8.70;;;;;;;2.70;100.00;100837.66;5091351;28;20043;-82
2022/12/08 04:18:59;;;;;;;19.80;9.48;;;;;;;2.71;100.00;100840.22;5091642;28;20047;-83
2022/12/08 04:21:24;;;;;;;19.60;9.30;;;;;;;2.73;100.00;100841.13;5091927;28;20028;-82
2022/12/08 04:23:50;;;;;;;22.20;11.68;;;;;;;2.72;100.00;100836.84;5092720;28;20020;-82
2022/12/08 04:26:15;;;;;;;22.40;11.52;;;;;;;2.72;100.00;100830.81;5091682;28;20076;-82
2022/12/08 04:28:56;;;;;;;21.58;11.35;;;;;;;2.71;100.00;100822.28;5091810;28;20063;-83
2022/12/08 04:31:24;;;;;;;20.30;10.20;;;;;;;2.73;100.00;100817.19;5092431;28;20021;-82
2022/12/08 04:33:50;;;;;;;20.38;10.10;;;;;;;2.74;100.00;100814.66;5092655;28;20024;-83
2022/12/08 04:36:15;;;;;;;20.52;10.23;;;;;;;2.74;100.00;100821.47;5091449;28;20384;-83
2022/12/08 04:38:40;;;;;;;21.33;10.73;;;;;;;2.75;100.00;100824.06;5092221;28;20107;-83
2022/12/08 04:41:06;;;;;;;19.95;9.70;;;;;;;2.75;100.00;100828.31;5092409;28;20023;-83
2022/12/08 04:43:51;;;;;;;20.88;10.45;;;;;;;2.73;100.00;100824.88;5091570;28;20544;-83
2022/12/08 04:46:17;;;;;;;20.70;9.60;;;;;;;2.73;100.00;100825.75;5088405;28;20473;-83
2022/12/08 04:48:42;;;;;;;19.15;9.38;;;;;;;2.72;100.00;100818.00;5075776;28;20021;-83
2022/12/08 04:51:39;;;;;;;17.52;8.30;;;;;;;2.72;100.00;100813.75;5074663;28;20055;-83
2022/12/08 04:54:22;;;;;;;17.02;8.02;;;;;;;2.72;100.00;100811.19;5044238;28;20565;-82
2022/12/08 04:56:48;;;;;;;15.73;7.00;;;;;;;2.73;100.00;100805.25;5074927;28;20028;-83
2022/12/08 04:59:13;;;;;;;13.07;6.07;;;;;;;2.75;100.00;100810.38;5075641;28;20025;-83
2022/12/08 05:01:38;;;;;;;13.10;6.10;;;;;;;2.76;100.00;100815.53;5075428;28;20033;-83
2022/12/08 05:04:21;;;;;;;13.13;5.78;;;;;;;2.77;100.00;100813.84;5074347;28;20023;-82
2022/12/08 05:06:49;;;;;;;10.45;4.95;;;;;;;2.78;100.00;100811.28;5074896;28;20055;-83
2022/12/08 05:09:14;;;;;;;10.75;5.07;;;;;;;2.80;100.00;100805.31;5075320;28;20058;-83
2022/12/08 05:11:40;;;;;;;8.90;4.55;;;;;;;2.77;100.00;100808.72;5074643;28;20024;-83
2022/12/08 05:14:09;;;;;;;10.30;4.85;;;;;;;2.78;100.00;100820.69;5075320;28;20104;-83
2022/12/08 05:16:47;;;;;;;11.32;5.28;;;;;;;2.77;100.00;100821.53;5075339;28;20055;-83
2022/12/08 05:19:13;;;;;;;12.27;5.45;;;;;;;2.74;100.00;100829.16;5068019;28;20032;-83
2022/12/08 05:21:39;;;;;;;11.15;5.13;;;;;;;2.69;100.00;100825.66;5075279;28;20044;-83
2022/12/08 05:24:05;;;;;;;10.35;4.93;;;;;;;2.69;100.00;100834.22;5075041;28;20078;-83
2022/12/08 05:26:45;;;;;;;7.45;4.10;;;;;;;2.65;100.00;100824.72;5073092;28;20048;-83
2022/12/08 05:29:10;;;;;;;8.13;3.83;;;;;;;2.62;100.00;100822.13;5074868;28;20024;-83
2022/12/08 05:31:36;;;;;;;6.20;3.25;;;;;;;2.62;100.00;100828.13;5074466;28;20028;-83
2022/12/08 05:34:01;;;;;;;5.50;3.13;;;;;;;2.61;100.00;100820.41;5075100;28;20021;-83
2022/12/08 05:36:27;;;;;;;5.18;3.03;;;;;;;2.63;100.00;100819.59;5074812;28;20042;-83
2022/12/08 05:38:55;;;;;;;4.35;2.75;;;;;;;2.63;100.00;100816.19;5074036;28;20104;-83
2022/12/08 05:41:33;;;;;;;3.30;2.30;;;;;;;2.62;100.00;100820.44;5067683;28;20098;-83
2022/12/08 05:43:58;;;;;;;3.20;2.40;;;;;;;2.66;100.00;100818.78;5074707;28;20036;-83
2022/12/08 05:46:23;;;;;;;2.50;2.03;;;;;;;2.70;100.00;100817.16;5078766;28;20069;-83
2022/12/08 05:48:49;;;;;;;2.00;1.80;;;;;;;2.70;100.00;100810.31;5095107;28;20073;-83
2022/12/08 05:51:29;;;;;;;2.58;1.90;;;;;;;2.69;100.00;100811.13;5094672;28;20031;-83
2022/12/08 05:53:55;;;;;;;1.90;1.75;;;;;;;2.70;100.00;100812.03;5094429;28;20024;-83
2022/12/08 05:56:21;;;;;;;1.57;1.47;;;;;;;2.70;100.00;100804.34;5094792;28;20035;-83
2022/12/08 05:58:47;;;;;;;1.90;1.70;;;;;;;2.72;100.00;100798.38;5093699;28;20472;-83
2022/12/08 06:01:28;;;;;;;2.40;1.98;;;;;;;2.71;100.00;100806.91;5094005;28;20024;-85
2022/12/08 06:03:54;;;;;;;3.25;2.40;;;;;;;2.68;100.00;100806.00;5081033;28;20092;-84
2022/12/08 06:06:20;;;;;;;2.33;2.13;;;;;;;2.62;100.00;100797.38;5094590;28;20024;-83
2022/12/08 06:08:46;;;;;;;2.80;2.25;;;;;;;2.65;100.00;100800.81;5094045;28;20111;-83
2022/12/08 06:11:27;;;;;;;2.72;2.15;;;;;;;2.60;100.00;100790.50;5094332;28;20077;-84
2022/12/08 06:13:54;;;;;;;2.55;2.00;;;;;;;2.57;100.00;100796.44;5093927;28;20032;-83
2022/12/08 06:16:20;;;;;;;2.00;1.80;;;;;;;2.58;100.00;100789.59;5093533;28;20028;-84
2022/12/08 06:18:45;;;;;;;1.65;1.52;;;;;;;2.56;100.00;100792.16;5094861;28;20027;-84
2022/12/08 06:21:20;;;;;;;1.90;1.80;;;;;;;2.56;100.00;100787.03;5093096;28;20300;-84
2022/12/08 06:23:50;;;;;;;2.30;1.60;;;;;;;2.58;100.00;100797.28;5094529;28;20385;-84
2022/12/08 06:26:16;;;;;;;1.60;1.50;;;;;;;2.57;100.00;100793.88;5077538;28;20060;-84
2022/12/08 06:28:59;;;;;;;1.50;1.40;;;;;;;2.57;100.00;100793.00;5072283;28;20020;-84
2022/12/08 06:31:25;;;;;;;1.27;1.20;;;;;;;2.58;100.00;100793.03;5073232;28;20031;-84
2022/12/08 06:33:52;;;;;;;1.15;1.10;;;;;;;2.59;100.00;100786.22;5074019;28;20028;-85
2022/12/08 06:36:19;;;;;;;1.38;1.27;;;;;;;2.59;100.00;100788.75;5071776;28;20029;-84
2022/12/08 06:38:46;;;;;;;1.60;1.50;;;;;;;2.56;100.00;100788.72;5073697;28;20496;-85
2022/12/08 06:41:17;;;;;;;1.83;1.73;;;;;;;2.56;100.00;100789.59;5073909;28;20030;-85
2022/12/08 06:43:43;;;;;;;1.88;1.70;;;;;;;2.53;100.00;100783.56;5072882;28;20366;-85
2022/12/08 06:46:13;;;;;;;1.98;1.75;;;;;;;2.52;100.00;100789.50;5073263;28;20031;-84
2022/12/08 06:48:38;;;;;;;2.17;1.65;;;;;;;2.51;100.00;100791.19;5073519;28;20047;-85
2022/12/08 06:51:13;;;;;;;2.22;1.48;;;;;;;2.49;100.00;100786.88;5073131;28;20508;-83
2022/12/08 06:53:39;;;;;;;1.95;1.80;;;;;;;2.50;100.00;100784.34;5073361;28;20040;-83
2022/12/08 06:56:11;;;;;;;1.58;1.42;;;;;;;2.50;100.00;100786.06;5072315;28;20456;-85
2022/12/08 06:58:37;;;;;;;2.13;1.45;;;;;;;2.47;100.00;100787.72;5073332;28;20016;-85
2022/12/08 07:01:12;;;;;;;1.67;1.58;;;;;;;2.49;100.00;100784.31;5073479;28;20035;-85
2022/12/08 07:03:38;;;;;;;1.02;1.02;;;;;;;2.49;100.00;100798.00;5083130;28;20350;-85
2022/12/08 07:06:04;;;;;;;0.90;0.90;;;;;;;2.50;100.00;100796.31;5093241;28;20102;-84
2022/12/08 07:08:29;;;;;;;0.90;0.90;;;;;;;2.48;100.00;100796.25;5093384;28;20831;-85
2022/12/08 07:10:54;;;;;;;1.40;1.30;;;;;;;2.49;100.00;100789.44;5092932;28;20016;-85
2022/12/08 07:13:20;;;;;;;1.45;1.35;;;;;;;2.50;100.00;100792.03;5093232;28;20055;-84
2022/12/08 07:15:45;;;;;;;1.50;1.40;;;;;;;2.51;100.00;100801.44;5093508;28;20077;-84
2022/12/08 07:18:11;;;;;;;1.55;1.45;;;;;;;2.50;100.00;100799.72;5072815;28;20041;-84
2022/12/08 07:20:36;;;;;;;1.88;1.77;;;;;;;2.47;100.00;100794.56;5073202;28;20028;-86
2022/12/08 07:23:01;;;;;;;2.08;1.98;;;;;;;2.45;100.00;100798.78;5072979;28;20045;-86
2022/12/08 07:25:36;;;;;;;2.08;1.90;;;;;;;2.43;100.00;100792.78;5072235;28;20055;-85
2022/12/08 07:28:07;;;;;;;2.20;1.90;;;;;;;2.40;100.00;100791.03;5073035;28;20081;-85
2022/12/08 07:30:32;;;;;;;2.53;2.15;;;;;;;2.42;100.00;100789.34;5073427;28;20111;-85
2022/12/08 07:32:57;;;;;;;4.20;2.47;;;;;;;2.42;100.00;100786.75;5133607;22;20485;-86
2022/12/08 07:35:22;;;;;;;3.60;2.80;;;;;;;2.41;100.00;100787.63;5072448;28;20035;-85
2022/12/08 07:37:48;;;;;;;3.75;2.50;;;;;;;2.41;100.00;100786.75;5072822;28;20021;-85
2022/12/08 07:40:13;;;;;;;2.70;2.50;;;;;;;2.43;100.00;100788.50;5071595;28;20040;-84
2022/12/08 07:42:38;;;;;;;3.47;2.53;;;;;;;2.43;100.00;100785.09;5072864;28;20035;-86
2022/12/08 07:45:04;;;;;;;2.90;2.42;;;;;;;2.42;100.00;100779.09;5072019;28;20032;-86
2022/12/08 07:47:32;;;;;;;2.80;2.50;;;;;;;2.43;100.00;100777.41;5081131;22;20106;-86
2022/12/08 07:49:58;;;;;;;3.13;2.40;;;;;;;2.44;100.00;100781.69;5072649;28;20111;-86
2022/12/08 07:52:23;;;;;;;2.28;2.08;;;;;;;2.43;100.00;100783.38;5071929;28;20144;-86
2022/12/08 07:54:48;;;;;;;2.78;2.30;;;;;;;2.48;100.00;100783.44;5072534;28;20055;-86
2022/12/08 07:57:20;;;;;;;2.72;2.42;;;;;;;2.45;100.00;100791.94;5072246;28;20456;-86
2022/12/08 07:59:45;;;;;;;3.55;2.47;;;;;;;2.50;100.00;100793.75;5071933;28;20384;-86
2022/12/08 08:02:19;;;;;;;3.50;2.30;;;;;;;2.51;100.00;100790.34;5072299;28;20036;-86
2022/12/08 08:04:49;;;;;;;5.45;3.50;;;;;;;2.46;100.00;100791.13;5072668;28;20418;-86
2022/12/08 08:07:14;;;;;;;6.47;3.95;;;;;;;2.47;100.00;100797.13;5071759;28;20035;-86
2022/12/08 08:09:39;;;;;;;8.18;4.60;;;;;;;2.45;100.00;100791.94;5072511;28;20016;-86
2022/12/08 08:12:31;;;;;;;7.90;4.50;;;;;;;2.47;100.00;100795.41;5072041;28;20031;-86
2022/12/08 08:14:57;;;;;;;6.63;3.97;;;;;;;2.47;100.00;100789.44;5066710;28;20032;-86
2022/12/08 08:17:36;;;;;;;5.07;3.63;;;;;;;2.47;100.00;100789.44;5072196;28;20030;-86
2022/12/08 08:20:05;;;;;;;7.20;4.30;;;;;;;2.49;100.00;100794.56;5072479;28;20037;-85
2022/12/08 08:22:30;;;;;;;7.35;4.15;;;;;;;2.49;100.00;100792.88;5075306;28;20032;-85
2022/12/08 08:24:56;;;;;;;6.97;4.20;;;;;;;2.48;100.00;100793.69;5076539;28;20027;-86
2022/12/08 08:27:36;;;;;;;8.60;4.82;;;;;;;2.45;100.00;100799.63;5075282;28;20388;-86
2022/12/08 08:30:01;;;;;;;6.75;4.20;;;;;;;2.46;100.00;100796.25;5076380;28;20032;-86
2022/12/08 08:32:27;;;;;;;5.30;3.50;;;;;;;2.45;100.00;100796.22;5076098;28;20025;-85
2022/12/08 08:34:52;;;;;;;5.28;3.70;;;;;;;2.44;100.00;100794.50;5075630;28;20111;-85
2022/12/08 08:37:18;;;;;;;5.15;3.22;;;;;;;2.42;100.00;100793.59;5075592;28;20025;-85
2022/12/08 08:39:55;;;;;;;4.55;2.92;;;;;;;2.37;100.00;100793.53;5075960;28;20032;-86
2022/12/08 08:42:33;;;;;;;4.22;2.65;;;;;;;2.33;100.00;100796.84;5075395;28;20021;-85
2022/12/08 08:44:58;;;;;;;3.45;2.40;;;;;;;2.27;100.00;100795.06;5076234;28;20443;-85
2022/12/08 08:47:23;;;;;;;3.08;2.35;;;;;;;2.27;100.00;100789.94;5075159;28;20048;-86
2022/12/08 08:49:48;;;;;;;2.60;2.00;;;;;;;2.30;100.00;100791.72;5075682;28;20016;-86
2022/12/08 08:52:14;;;;;;;2.67;2.17;;;;;;;2.31;100.00;100793.41;5075472;28;20502;-86
2022/12/08 08:54:54;;;;;;;2.35;1.92;;;;;;;2.30;100.00;100794.25;5075939;28;20036;-86
2022/12/08 08:57:19;;;;;;;2.08;1.98;;;;;;;2.28;100.00;100796.78;5068355;28;20039;-85
2022/12/08 08:59:45;;;;;;;2.55;1.95;;;;;;;2.29;100.00;100795.09;5075694;28;20105;-86
2022/12/08 09:02:28;;;;;;;1.83;1.73;;;;;;;2.27;100.00;100800.16;5075230;28;20078;-86
2022/12/08 09:04:54;;;;;;;2.00;1.80;;;;;;;2.27;100.00;100797.63;5075608;28;20044;-86
2022/12/08 09:07:19;;;;;;;1.67;1.58;;;;;;;2.25;100.00;100794.16;5075252;28;20028;-86
2022/12/08 09:09:44;;;;;;;1.45;1.35;;;;;;;2.28;100.00;100795.94;5075104;28;20017;-85
2022/12/08 09:12:10;;;;;;;1.50;1.40;;;;;;;2.30;100.00;100789.16;5075174;28;20028;-85
2022/12/08 09:14:46;;;;;;;1.42;1.33;;;;;;;2.35;100.00;100786.66;5075594;28;20059;-85
2022/12/08 09:17:12;;;;;;;1.60;1.50;;;;;;;2.40;100.00;100785.03;5074401;28;20162;-86
2022/12/08 09:19:37;;;;;;;1.40;1.30;;;;;;;2.42;100.00;100791.88;5075324;28;20111;-86
2022/12/08 09:22:03;;;;;;;1.20;1.20;;;;;;;2.43;100.00;100792.78;5074995;28;20017;-86
2022/12/08 09:24:28;;;;;;;1.03;1.03;;;;;;;2.48;100.00;100783.44;5074836;28;20025;-86
2022/12/08 09:26:54;;;;;;;1.50;1.40;;;;;;;2.53;100.00;100784.41;5075454;28;20282;-86
2022/12/08 09:29:19;;;;;;;1.35;1.25;;;;;;;2.57;100.00;100782.75;5075102;28;20044;-85
2022/12/08 09:31:57;;;;;;;1.48;1.20;;;;;;;2.62;100.00;100776.88;5073869;28;20032;-85
2022/12/08 09:34:22;;;;;;;1.10;1.10;;;;;;;2.70;100.00;100778.72;5074906;28;20696;-85
2022/12/08 09:36:47;;;;;;;1.33;1.23;;;;;;;2.76;100.00;100778.78;5075152;28;20029;-85
2022/12/08 09:39:13;;;;;;;1.38;1.30;;;;;;;2.75;100.00;100785.63;5073824;28;20097;-85
2022/12/08 09:41:58;;;;;;;1.35;1.25;;;;;;;2.76;100.00;100787.31;5075187;28;20165;-85
2022/12/08 09:44:48;;;;;;;1.63;1.52;;;;;;;2.78;100.00;100784.81;5074642;28;20024;-85
2022/12/08 09:47:28;;;;;;;1.98;1.70;;;;;;;2.78;100.00;100784.81;5074090;28;20044;-85
2022/12/08 09:49:53;;;;;;;2.42;2.10;;;;;;;2.77;100.00;100781.38;5075059;28;20086;-85
2022/12/08 09:52:24;;;;;;;2.20;2.08;;;;;;;2.81;100.00;100791.69;5074093;28;20025;-86
2022/12/08 09:54:49;;;;;;;5.25;2.50;;;;;;;2.80;100.00;100789.94;5074858;28;20024;-85
2022/12/08 09:57:19;;;;;;;2.53;2.30;;;;;;;2.78;100.00;100779.69;5074509;28;20047;-85
2022/12/08 09:59:51;;;;;;;2.45;2.20;;;;;;;2.77;100.00;100785.66;5074092;28;20025;-85
2022/12/08 10:02:26;;;;;;;2.42;2.10;;;;;;;2.77;100.00;100786.50;5074332;28;20457;-85
2022/12/08 10:04:54;;;;;;;2.72;2.17;;;;;;;2.78;100.00;100772.00;5075437;28;20025;-85
2022/12/08 10:07:37;;;;;;;3.25;2.20;;;;;;;2.80;100.00;100777.13;5073330;28;20154;-85
2022/12/08 10:10:12;;;;;;;2.88;2.22;;;;;;;2.83;100.00;100772.91;5074766;28;20077;-85
2022/12/08 10:12:44;;;;;;;2.47;2.03;;;;;;;2.87;100.00;100773.84;5074670;28;20035;-86
2022/12/08 10:15:48;;;;;;;2.20;2.00;;;;;;;2.89;100.00;100775.59;5074207;28;20404;-85
2022/12/08 10:18:22;;;;;;;3.15;2.20;;;;;;;2.95;100.00;100769.69;5069899;28;20048;-85
2022/12/08 10:20:49;;;;;;;3.60;2.30;;;;;;;2.96;100.00;100768.84;5073266;28;20386;-85
2022/12/08 10:23:34;;;;;;;;;;;;;;;2.97;100.00;100769.69;5074353;28;20068;-85
2022/12/08 10:26:03;;;;;;;3.40;2.28;;;;;;;2.99;100.00;100774.00;5074021;28;20280;-85
2022/12/08 10:28:31;;;;;;;3.55;2.35;;;;;;;3.02;100.00;100756.09;5073252;28;20039;-85
2022/12/08 10:30:56;;;;;;;2.40;2.00;;;;;;;3.05;100.00;100755.28;5073889;28;20465;-85
2022/12/08 10:33:22;;;;;;;2.20;2.00;;;;;;;3.08;100.00;100758.78;5074075;28;20043;-85
2022/12/08 10:35:55;;;;;;;2.20;2.00;;;;;;;3.13;100.00;100763.09;5073253;28;20044;-86
2022/12/08 10:38:25;;;;;;;6.38;3.20;;;;;;;3.14;100.00;100758.00;5073746;28;20283;-85
2022/12/08 10:40:55;;;;;;;6.28;3.42;;;;;;;3.14;100.00;100749.44;5073273;28;20024;-85
2022/12/08 10:43:23;;;;;;;6.63;3.80;;;;;;;3.15;100.00;100754.59;5073708;28;20072;-85
2022/12/08 10:45:50;;;;;;;7.38;3.85;;;;;;;3.17;100.00;100750.31;5073391;28;20037;-85
2022/12/08 10:48:30;;;;;;;7.25;3.95;;;;;;;3.21;100.00;100751.22;5072603;28;20032;-85
2022/12/08 10:50:57;;;;;;;7.90;4.35;;;;;;;3.22;100.00;100756.41;5073690;28;20031;-85
2022/12/08 10:53:23;;;;;;;;;;;;;;;3.21;100.00;100756.34;5073896;28;20521;-84
2022/12/08 10:56:04;;;;;;;20.40;9.32;;;;;;;3.19;100.00;100758.06;5072757;28;19919;-85
2022/12/08 10:58:34;;;;;;;18.30;8.75;;;;;;;3.13;100.00;100756.28;5074054;28;20069;-85
2022/12/08 11:01:24;;;;;;;19.17;9.40;;;;;;;3.13;100.00;100752.81;5073807;28;20028;-86
2022/12/08 11:03:53;;;;;;;17.50;8.65;;;;;;;3.12;100.00;100754.53;5072560;28;20031;-86
2022/12/08 11:06:36;;;;;;;18.48;8.60;;;;;;;3.10;100.00;100738.28;5074380;28;20028;-85
2022/12/08 11:09:16;;;;;;;18.33;8.57;;;;;;;3.13;100.00;100734.88;5072719;28;20024;-86
2022/12/08 11:11:47;;;;;;;15.75;7.13;;;;;;;3.14;100.00;100742.63;5073462;28;20033;-86
2022/12/08 11:14:29;;;;;;;14.98;7.07;;;;;;;3.13;100.00;100732.31;5072071;28;20013;-85
2022/12/08 11:17:04;;;;;;;17.60;8.02;;;;;;;3.08;100.00;100728.00;5072765;28;20093;-86
2022/12/08 11:19:29;;;;;;;16.65;7.65;;;;;;;3.08;100.00;100735.69;5073457;28;20483;-86
2022/12/08 11:21:55;;;;;;;14.75;6.95;;;;;;;3.07;100.00;100728.84;5073476;28;20103;-86
2022/12/08 11:24:24;;;;;;;13.93;6.80;;;;;;;3.08;100.00;100730.56;5072249;28;20122;-86
2022/12/08 11:27:01;;;;;;;14.55;6.75;;;;;;;3.05;100.00;100727.94;5072976;28;20115;-86
2022/12/08 11:29:29;;;;;;;;;;;;;;;3.05;100.00;100724.50;5073623;28;20368;-86
2022/12/08 11:32:01;;;;;;;11.80;5.53;;;;;;;3.06;100.00;100716.84;5072187;28;19916;-86
2022/12/08 11:34:38;;;;;;;10.90;5.35;;;;;;;3.07;100.00;100713.47;5074018;28;20020;-86
2022/12/08 11:37:33;;;;;;;9.18;4.82;;;;;;;3.12;100.00;100712.63;5072942;28;20036;-86
2022/12/08 11:40:04;;;;;;;14.93;6.97;;;;;;;3.08;100.00;100704.03;5072788;28;20480;-86
2022/12/08 11:42:34;;;;;;;15.57;7.45;;;;;;;3.06;100.00;100711.72;5072935;28;20020;-87
2022/12/08 11:45:11;;;;;;;13.93;7.00;;;;;;;3.03;100.00;100711.69;5072110;28;20110;-86
2022/12/08 11:47:42;;;;;;;;;;;;;;;3.04;100.00;100710.00;5072986;28;20132;-86
2022/12/08 11:50:21;;;;;;;13.02;6.55;;;;;;;3.01;100.00;100712.50;5073964;28;19916;-86